sensor_id;sensor_type;location;lat;lon;timestamp;P1;durP1;ratioP1;P2;durP2;ratioP2
52102;SDS011;38101;53.126;6.878;2023-04-01T00:00:48;7.95;;;5.78;;
52102;SDS011;38101;53.126;6.878;2023-04-01T00:03:14;9.77;;;5.60;;
52102;SDS011;38101;53.126;6.878;2023-04-01T00:05:39;8.38;;;5.55;;
52102;SDS011;38101;53.126;6.878;2023-04-01T00:08:05;11.48;;;6.40;;
52102;SDS011;38101;53.126;6.878;2023-04-01T00:10:31;6.97;;;5.68;;
52102;SDS011;38101;53.126;6.878;2023-04-01T00:12:57;8.65;;;5.63;;
52102;SDS011;38101;53.126;6.878;2023-04-01T00:15:22;8.35;;;5.80;;
52102;SDS011;38101;53.126;6.878;2023-04-01T00:17:48;7.85;;;5.70;;
52102;SDS011;38101;53.126;6.878;2023-04-01T00:20:14;7.45;;;5.68;;
52102;SDS011;38101;53.126;6.878;2023-04-01T00:22:40;8.57;;;5.78;;
52102;SDS011;38101;53.126;6.878;2023-04-01T00:25:06;9.07;;;5.68;;
52102;SDS011;38101;53.126;6.878;2023-04-01T00:27:32;7.20;;;6.10;;
52102;SDS011;38101;53.126;6.878;2023-04-01T00:29:58;8.20;;;6.00;;
52102;SDS011;38101;53.126;6.878;2023-04-01T00:32:24;8.02;;;5.68;;
52102;SDS011;38101;53.126;6.878;2023-04-01T00:34:51;7.65;;;5.75;;
52102;SDS011;38101;53.126;6.878;2023-04-01T00:37:17;9.32;;;6.07;;
52102;SDS011;38101;53.126;6.878;2023-04-01T00:39:44;8.57;;;5.85;;
52102;SDS011;38101;53.126;6.878;2023-04-01T00:42:09;7.68;;;6.07;;
52102;SDS011;38101;53.126;6.878;2023-04-01T00:44:36;9.68;;;6.50;;
52102;SDS011;38101;53.126;6.878;2023-04-01T00:47:03;8.65;;;6.13;;
52102;SDS011;38101;53.126;6.878;2023-04-01T00:49:30;9.32;;;6.45;;
52102;SDS011;38101;53.126;6.878;2023-04-01T00:52:04;10.68;;;6.57;;
52102;SDS011;38101;53.126;6.878;2023-04-01T00:54:32;12.43;;;6.60;;
52102;SDS011;38101;53.126;6.878;2023-04-01T00:57:00;9.57;;;6.72;;
52102;SDS011;38101;53.126;6.878;2023-04-01T00:59:34;11.18;;;6.22;;
52102;SDS011;38101;53.126;6.878;2023-04-01T01:02:04;11.55;;;5.97;;
52102;SDS011;38101;53.126;6.878;2023-04-01T01:04:32;8.90;;;6.22;;
52102;SDS011;38101;53.126;6.878;2023-04-01T01:09:42;9.82;;;5.90;;
52102;SDS011;38101;53.126;6.878;2023-04-01T01:12:18;7.60;;;5.57;;
52102;SDS011;38101;53.126;6.878;2023-04-01T01:15:09;9.57;;;5.72;;
52102;SDS011;38101;53.126;6.878;2023-04-01T01:29:01;8.02;;;5.75;;
52102;SDS011;38101;53.126;6.878;2023-04-01T01:31:58;7.75;;;5.93;;
52102;SDS011;38101;53.126;6.878;2023-04-01T01:37:21;9.27;;;6.28;;
52102;SDS011;38101;53.126;6.878;2023-04-01T01:39:54;7.25;;;6.22;;
52102;SDS011;38101;53.126;6.878;2023-04-01T01:42:25;8.32;;;6.15;;
52102;SDS011;38101;53.126;6.878;2023-04-01T01:44:53;10.02;;;6.65;;
52102;SDS011;38101;53.126;6.878;2023-04-01T01:47:21;7.53;;;6.40;;
52102;SDS011;38101;53.126;6.878;2023-04-01T01:49:48;8.40;;;7.25;;
52102;SDS011;38101;53.126;6.878;2023-04-01T01:52:16;9.55;;;7.15;;
52102;SDS011;38101;53.126;6.878;2023-04-01T01:54:52;8.98;;;6.93;;
52102;SDS011;38101;53.126;6.878;2023-04-01T01:57:22;9.38;;;6.72;;
52102;SDS011;38101;53.126;6.878;2023-04-01T01:59:51;9.07;;;7.45;;
52102;SDS011;38101;53.126;6.878;2023-04-01T02:02:23;10.10;;;7.30;;
52102;SDS011;38101;53.126;6.878;2023-04-01T02:04:50;10.63;;;7.55;;
52102;SDS011;38101;53.126;6.878;2023-04-01T02:07:21;8.73;;;7.25;;
52102;SDS011;38101;53.126;6.878;2023-04-01T02:09:51;10.27;;;7.13;;
52102;SDS011;38101;53.126;6.878;2023-04-01T02:12:17;9.98;;;7.10;;
52102;SDS011;38101;53.126;6.878;2023-04-01T02:17:40;9.10;;;7.15;;
52102;SDS011;38101;53.126;6.878;2023-04-01T02:20:17;9.55;;;7.22;;
52102;SDS011;38101;53.126;6.878;2023-04-01T02:22:47;10.50;;;7.18;;
52102;SDS011;38101;53.126;6.878;2023-04-01T02:25:20;7.43;;;6.28;;
52102;SDS011;38101;53.126;6.878;2023-04-01T02:27:52;9.07;;;6.97;;
52102;SDS011;38101;53.126;6.878;2023-04-01T02:30:20;8.90;;;6.90;;
52102;SDS011;38101;53.126;6.878;2023-04-01T02:32:46;11.35;;;7.10;;
52102;SDS011;38101;53.126;6.878;2023-04-01T02:35:14;8.35;;;6.82;;
52102;SDS011;38101;53.126;6.878;2023-04-01T02:37:41;10.07;;;7.47;;
52102;SDS011;38101;53.126;6.878;2023-04-01T02:40:12;10.13;;;7.40;;
52102;SDS011;38101;53.126;6.878;2023-04-01T02:42:39;9.20;;;7.32;;
52102;SDS011;38101;53.126;6.878;2023-04-01T02:45:06;10.23;;;7.80;;
52102;SDS011;38101;53.126;6.878;2023-04-01T02:47:32;9.05;;;7.28;;
52102;SDS011;38101;53.126;6.878;2023-04-01T02:49:57;9.98;;;7.03;;
52102;SDS011;38101;53.126;6.878;2023-04-01T02:52:27;10.18;;;7.22;;
52102;SDS011;38101;53.126;6.878;2023-04-01T02:54:54;10.38;;;7.50;;
52102;SDS011;38101;53.126;6.878;2023-04-01T02:57:20;10.00;;;7.40;;
52102;SDS011;38101;53.126;6.878;2023-04-01T02:59:46;9.75;;;7.32;;
52102;SDS011;38101;53.126;6.878;2023-04-01T03:02:12;9.70;;;7.22;;
52102;SDS011;38101;53.126;6.878;2023-04-01T03:04:38;9.88;;;7.53;;
52102;SDS011;38101;53.126;6.878;2023-04-01T03:07:03;9.68;;;7.53;;
52102;SDS011;38101;53.126;6.878;2023-04-01T03:09:29;10.45;;;8.05;;
52102;SDS011;38101;53.126;6.878;2023-04-01T03:11:55;9.40;;;7.75;;
52102;SDS011;38101;53.126;6.878;2023-04-01T03:14:21;10.93;;;8.00;;
52102;SDS011;38101;53.126;6.878;2023-04-01T03:16:46;9.80;;;7.53;;
52102;SDS011;38101;53.126;6.878;2023-04-01T03:19:12;10.73;;;8.18;;
52102;SDS011;38101;53.126;6.878;2023-04-01T03:21:38;11.13;;;8.50;;
52102;SDS011;38101;53.126;6.878;2023-04-01T03:24:05;9.57;;;7.35;;
52102;SDS011;38101;53.126;6.878;2023-04-01T03:26:31;9.55;;;7.75;;
52102;SDS011;38101;53.126;6.878;2023-04-01T03:28:57;9.57;;;7.70;;
52102;SDS011;38101;53.126;6.878;2023-04-01T03:31:22;10.85;;;8.45;;
52102;SDS011;38101;53.126;6.878;2023-04-01T03:33:49;9.30;;;7.40;;
52102;SDS011;38101;53.126;6.878;2023-04-01T03:36:15;9.80;;;7.68;;
52102;SDS011;38101;53.126;6.878;2023-04-01T03:38:42;10.50;;;7.85;;
52102;SDS011;38101;53.126;6.878;2023-04-01T03:41:11;10.75;;;8.13;;
52102;SDS011;38101;53.126;6.878;2023-04-01T03:43:41;9.25;;;7.47;;
52102;SDS011;38101;53.126;6.878;2023-04-01T03:46:07;10.07;;;8.15;;
52102;SDS011;38101;53.126;6.878;2023-04-01T03:48:33;10.77;;;7.80;;
52102;SDS011;38101;53.126;6.878;2023-04-01T03:50:59;10.27;;;8.40;;
52102;SDS011;38101;53.126;6.878;2023-04-01T03:53:25;12.70;;;9.20;;
52102;SDS011;38101;53.126;6.878;2023-04-01T03:55:51;11.32;;;8.30;;
52102;SDS011;38101;53.126;6.878;2023-04-01T03:58:17;12.88;;;9.20;;
52102;SDS011;38101;53.126;6.878;2023-04-01T04:00:43;11.65;;;8.82;;
52102;SDS011;38101;53.126;6.878;2023-04-01T04:03:09;13.18;;;9.60;;
52102;SDS011;38101;53.126;6.878;2023-04-01T04:05:35;13.48;;;9.80;;
52102;SDS011;38101;53.126;6.878;2023-04-01T04:08:00;10.93;;;8.77;;
52102;SDS011;38101;53.126;6.878;2023-04-01T04:10:26;10.40;;;8.65;;
52102;SDS011;38101;53.126;6.878;2023-04-01T04:12:54;12.05;;;8.70;;
52102;SDS011;38101;53.126;6.878;2023-04-01T04:15:20;10.60;;;8.30;;
52102;SDS011;38101;53.126;6.878;2023-04-01T04:17:46;12.18;;;8.73;;
52102;SDS011;38101;53.126;6.878;2023-04-01T04:20:13;11.07;;;8.65;;
52102;SDS011;38101;53.126;6.878;2023-04-01T04:22:39;10.40;;;8.40;;
52102;SDS011;38101;53.126;6.878;2023-04-01T04:25:05;10.60;;;8.70;;
52102;SDS011;38101;53.126;6.878;2023-04-01T04:27:31;10.30;;;8.80;;
52102;SDS011;38101;53.126;6.878;2023-04-01T04:29:56;10.40;;;8.23;;
52102;SDS011;38101;53.126;6.878;2023-04-01T04:32:22;11.10;;;8.65;;
52102;SDS011;38101;53.126;6.878;2023-04-01T04:34:48;11.23;;;8.88;;
52102;SDS011;38101;53.126;6.878;2023-04-01T04:37:13;10.18;;;7.93;;
52102;SDS011;38101;53.126;6.878;2023-04-01T04:39:39;11.30;;;8.98;;
52102;SDS011;38101;53.126;6.878;2023-04-01T04:42:05;12.07;;;8.60;;
52102;SDS011;38101;53.126;6.878;2023-04-01T04:44:31;11.27;;;9.00;;
52102;SDS011;38101;53.126;6.878;2023-04-01T04:46:56;10.05;;;8.32;;
52102;SDS011;38101;53.126;6.878;2023-04-01T04:49:22;12.40;;;9.55;;
52102;SDS011;38101;53.126;6.878;2023-04-01T04:51:48;13.00;;;9.32;;
52102;SDS011;38101;53.126;6.878;2023-04-01T04:54:13;10.65;;;8.65;;
52102;SDS011;38101;53.126;6.878;2023-04-01T04:56:39;10.55;;;8.70;;
52102;SDS011;38101;53.126;6.878;2023-04-01T04:59:05;10.48;;;8.73;;
52102;SDS011;38101;53.126;6.878;2023-04-01T05:01:31;12.85;;;8.93;;
52102;SDS011;38101;53.126;6.878;2023-04-01T05:03:58;10.98;;;8.82;;
52102;SDS011;38101;53.126;6.878;2023-04-01T05:06:24;11.48;;;9.15;;
52102;SDS011;38101;53.126;6.878;2023-04-01T05:08:51;11.45;;;9.10;;
52102;SDS011;38101;53.126;6.878;2023-04-01T05:11:17;11.80;;;9.38;;
52102;SDS011;38101;53.126;6.878;2023-04-01T05:13:45;12.05;;;9.52;;
52102;SDS011;38101;53.126;6.878;2023-04-01T05:16:13;11.57;;;9.57;;
52102;SDS011;38101;53.126;6.878;2023-04-01T05:18:40;13.13;;;9.77;;
52102;SDS011;38101;53.126;6.878;2023-04-01T05:21:07;13.05;;;10.50;;
52102;SDS011;38101;53.126;6.878;2023-04-01T05:23:34;13.05;;;9.65;;
52102;SDS011;38101;53.126;6.878;2023-04-01T05:26:03;13.95;;;10.57;;
52102;SDS011;38101;53.126;6.878;2023-04-01T05:28:30;12.82;;;10.13;;
52102;SDS011;38101;53.126;6.878;2023-04-01T05:30:57;14.73;;;10.20;;
52102;SDS011;38101;53.126;6.878;2023-04-01T05:33:25;13.73;;;10.45;;
52102;SDS011;38101;53.126;6.878;2023-04-01T05:35:50;13.68;;;10.45;;
52102;SDS011;38101;53.126;6.878;2023-04-01T05:38:16;12.93;;;10.07;;
52102;SDS011;38101;53.126;6.878;2023-04-01T05:40:42;14.73;;;11.73;;
52102;SDS011;38101;53.126;6.878;2023-04-01T05:43:07;13.18;;;10.45;;
52102;SDS011;38101;53.126;6.878;2023-04-01T05:45:33;12.85;;;10.57;;
52102;SDS011;38101;53.126;6.878;2023-04-01T05:47:59;16.00;;;10.38;;
52102;SDS011;38101;53.126;6.878;2023-04-01T05:50:25;12.55;;;10.32;;
52102;SDS011;38101;53.126;6.878;2023-04-01T05:52:51;14.75;;;10.65;;
52102;SDS011;38101;53.126;6.878;2023-04-01T05:55:17;13.02;;;10.38;;
52102;SDS011;38101;53.126;6.878;2023-04-01T05:57:44;14.95;;;11.10;;
52102;SDS011;38101;53.126;6.878;2023-04-01T06:00:11;13.18;;;10.20;;
52102;SDS011;38101;53.126;6.878;2023-04-01T06:02:38;13.80;;;10.68;;
52102;SDS011;38101;53.126;6.878;2023-04-01T06:10:09;15.02;;;11.07;;
52102;SDS011;38101;53.126;6.878;2023-04-01T06:12:46;15.25;;;12.25;;
52102;SDS011;38101;53.126;6.878;2023-04-01T06:26:37;15.65;;;11.15;;
52102;SDS011;38101;53.126;6.878;2023-04-01T06:34:56;13.85;;;11.32;;
52102;SDS011;38101;53.126;6.878;2023-04-01T06:45:34;15.30;;;11.07;;
52102;SDS011;38101;53.126;6.878;2023-04-01T06:50:58;14.90;;;11.30;;
52102;SDS011;38101;53.126;6.878;2023-04-01T06:53:50;14.70;;;11.20;;
52102;SDS011;38101;53.126;6.878;2023-04-01T06:56:32;15.00;;;10.93;;
52102;SDS011;38101;53.126;6.878;2023-04-01T06:59:04;14.75;;;11.57;;
52102;SDS011;38101;53.126;6.878;2023-04-01T07:04:06;14.73;;;11.73;;
52102;SDS011;38101;53.126;6.878;2023-04-01T07:09:58;16.67;;;12.75;;
52102;SDS011;38101;53.126;6.878;2023-04-01T07:15:01;15.50;;;11.23;;
52102;SDS011;38101;53.126;6.878;2023-04-01T07:17:36;17.73;;;11.65;;
52102;SDS011;38101;53.126;6.878;2023-04-01T07:22:51;13.73;;;10.38;;
52102;SDS011;38101;53.126;6.878;2023-04-01T07:25:29;16.70;;;12.03;;
52102;SDS011;38101;53.126;6.878;2023-04-01T07:28:06;14.90;;;11.05;;
52102;SDS011;38101;53.126;6.878;2023-04-01T07:30:47;16.75;;;11.18;;
52102;SDS011;38101;53.126;6.878;2023-04-01T07:34:03;16.00;;;12.40;;
52102;SDS011;38101;53.126;6.878;2023-04-01T07:36:08;16.30;;;12.27;;
52102;SDS011;38101;53.126;6.878;2023-04-01T07:39:09;17.15;;;11.80;;
52102;SDS011;38101;53.126;6.878;2023-04-01T07:44:35;14.88;;;11.55;;
52102;SDS011;38101;53.126;6.878;2023-04-01T07:55:23;16.85;;;11.63;;
52102;SDS011;38101;53.126;6.878;2023-04-01T08:00:59;16.95;;;11.38;;
52102;SDS011;38101;53.126;6.878;2023-04-01T08:03:38;16.48;;;11.27;;
52102;SDS011;38101;53.126;6.878;2023-04-01T08:06:14;13.80;;;10.18;;
52102;SDS011;38101;53.126;6.878;2023-04-01T08:09:02;15.25;;;11.40;;
52102;SDS011;38101;53.126;6.878;2023-04-01T08:12:04;15.35;;;10.25;;
52102;SDS011;38101;53.126;6.878;2023-04-01T08:20:10;14.30;;;10.02;;
52102;SDS011;38101;53.126;6.878;2023-04-01T08:22:48;16.20;;;10.98;;
52102;SDS011;38101;53.126;6.878;2023-04-01T08:25:19;13.70;;;10.07;;
52102;SDS011;38101;53.126;6.878;2023-04-01T08:30:36;13.50;;;9.43;;
52102;SDS011;38101;53.126;6.878;2023-04-01T08:33:30;13.88;;;9.48;;
52102;SDS011;38101;53.126;6.878;2023-04-01T08:36:05;12.07;;;8.48;;
52102;SDS011;38101;53.126;6.878;2023-04-01T08:38:44;14.52;;;10.07;;
52102;SDS011;38101;53.126;6.878;2023-04-01T08:42:12;12.23;;;9.32;;
52102;SDS011;38101;53.126;6.878;2023-04-01T08:50:08;14.35;;;9.77;;
52102;SDS011;38101;53.126;6.878;2023-04-01T08:58:13;16.33;;;10.10;;
52102;SDS011;38101;53.126;6.878;2023-04-01T09:01:11;15.15;;;10.00;;
52102;SDS011;38101;53.126;6.878;2023-04-01T09:28:31;6.90;;;5.13;;
52102;SDS011;38101;53.126;6.878;2023-04-01T09:31:40;6.20;;;4.10;;
52102;SDS011;38101;53.126;6.878;2023-04-01T09:37:33;6.22;;;4.00;;
52102;SDS011;38101;53.126;6.878;2023-04-01T10:05:04;4.00;;;2.58;;
52102;SDS011;38101;53.126;6.878;2023-04-01T10:20:03;4.05;;;2.70;;
52102;SDS011;38101;53.126;6.878;2023-04-01T10:25:26;3.45;;;2.60;;
52102;SDS011;38101;53.126;6.878;2023-04-01T10:58:51;3.22;;;2.20;;
52102;SDS011;38101;53.126;6.878;2023-04-01T11:13:17;3.58;;;2.38;;
52102;SDS011;38101;53.126;6.878;2023-04-01T11:32:43;3.42;;;2.65;;
52102;SDS011;38101;53.126;6.878;2023-04-01T11:35:32;4.13;;;2.67;;
52102;SDS011;38101;53.126;6.878;2023-04-01T11:38:22;3.63;;;2.88;;
52102;SDS011;38101;53.126;6.878;2023-04-01T11:40:59;4.57;;;3.10;;
52102;SDS011;38101;53.126;6.878;2023-04-01T11:57:43;3.55;;;2.45;;
52102;SDS011;38101;53.126;6.878;2023-04-01T12:12:10;4.43;;;2.13;;
52102;SDS011;38101;53.126;6.878;2023-04-01T12:28:21;4.97;;;3.10;;
52102;SDS011;38101;53.126;6.878;2023-04-01T12:31:31;10.40;;;3.90;;
52102;SDS011;38101;53.126;6.878;2023-04-01T12:33:54;4.03;;;2.58;;
52102;SDS011;38101;53.126;6.878;2023-04-01T12:36:40;3.30;;;2.58;;
52102;SDS011;38101;53.126;6.878;2023-04-01T12:55:51;3.65;;;2.20;;
52102;SDS011;38101;53.126;6.878;2023-04-01T12:58:35;2.85;;;2.22;;
52102;SDS011;38101;53.126;6.878;2023-04-01T13:18:15;3.58;;;2.40;;
52102;SDS011;38101;53.126;6.878;2023-04-01T13:26:32;3.00;;;2.20;;
52102;SDS011;38101;53.126;6.878;2023-04-01T13:29:14;3.83;;;2.50;;
52102;SDS011;38101;53.126;6.878;2023-04-01T13:37:21;4.65;;;2.40;;
52102;SDS011;38101;53.126;6.878;2023-04-01T13:40:33;3.47;;;2.65;;
52102;SDS011;38101;53.126;6.878;2023-04-01T13:43:16;3.28;;;2.30;;
52102;SDS011;38101;53.126;6.878;2023-04-01T13:48:22;2.92;;;2.17;;
52102;SDS011;38101;53.126;6.878;2023-04-01T13:53:59;3.42;;;2.40;;
52102;SDS011;38101;53.126;6.878;2023-04-01T13:57:00;3.05;;;2.40;;
52102;SDS011;38101;53.126;6.878;2023-04-01T14:08:08;3.38;;;2.45;;
52102;SDS011;38101;53.126;6.878;2023-04-01T14:10:52;2.40;;;2.10;;
52102;SDS011;38101;53.126;6.878;2023-04-01T14:21:41;3.90;;;3.50;;
52102;SDS011;38101;53.126;6.878;2023-04-01T14:24:32;3.88;;;3.47;;
52102;SDS011;38101;53.126;6.878;2023-04-01T14:33:05;4.00;;;3.05;;
52102;SDS011;38101;53.126;6.878;2023-04-01T14:50:05;3.22;;;2.80;;
52102;SDS011;38101;53.126;6.878;2023-04-01T14:52:40;3.50;;;3.13;;
52102;SDS011;38101;53.126;6.878;2023-04-01T14:55:54;4.25;;;3.35;;
52102;SDS011;38101;53.126;6.878;2023-04-01T15:06:09;4.70;;;3.33;;
52102;SDS011;38101;53.126;6.878;2023-04-01T15:11:54;4.93;;;3.47;;
52102;SDS011;38101;53.126;6.878;2023-04-01T15:14:35;4.93;;;3.20;;
52102;SDS011;38101;53.126;6.878;2023-04-01T15:22:48;5.03;;;3.03;;
52102;SDS011;38101;53.126;6.878;2023-04-01T15:39:13;4.57;;;3.80;;
52102;SDS011;38101;53.126;6.878;2023-04-01T15:47:35;6.18;;;3.50;;
52102;SDS011;38101;53.126;6.878;2023-04-01T15:52:49;5.20;;;4.18;;
52102;SDS011;38101;53.126;6.878;2023-04-01T15:55:31;6.28;;;5.15;;
52102;SDS011;38101;53.126;6.878;2023-04-01T16:00:54;6.55;;;5.45;;
52102;SDS011;38101;53.126;6.878;2023-04-01T16:03:30;7.85;;;6.30;;
52102;SDS011;38101;53.126;6.878;2023-04-01T16:08:52;11.82;;;9.27;;
52102;SDS011;38101;53.126;6.878;2023-04-01T16:17:05;14.40;;;11.23;;
52102;SDS011;38101;53.126;6.878;2023-04-01T16:25:39;17.42;;;10.18;;
52102;SDS011;38101;53.126;6.878;2023-04-01T16:30:48;7.45;;;5.10;;
52102;SDS011;38101;53.126;6.878;2023-04-01T16:33:35;6.70;;;4.68;;
52102;SDS011;38101;53.126;6.878;2023-04-01T16:36:17;8.88;;;4.78;;
52102;SDS011;38101;53.126;6.878;2023-04-01T16:42:16;7.22;;;4.68;;
52102;SDS011;38101;53.126;6.878;2023-04-01T16:47:49;8.57;;;4.93;;
52102;SDS011;38101;53.126;6.878;2023-04-01T16:50:20;7.10;;;4.70;;
52102;SDS011;38101;53.126;6.878;2023-04-01T16:55:43;8.45;;;5.30;;
52102;SDS011;38101;53.126;6.878;2023-04-01T16:58:34;6.70;;;4.90;;
52102;SDS011;38101;53.126;6.878;2023-04-01T17:03:49;7.85;;;5.13;;
52102;SDS011;38101;53.126;6.878;2023-04-01T17:06:28;6.43;;;5.05;;
52102;SDS011;38101;53.126;6.878;2023-04-01T17:20:35;6.18;;;4.13;;
52102;SDS011;38101;53.126;6.878;2023-04-01T17:37:31;7.07;;;4.70;;
52102;SDS011;38101;53.126;6.878;2023-04-01T17:43:03;8.60;;;4.95;;
52102;SDS011;38101;53.126;6.878;2023-04-01T17:54:05;7.85;;;5.00;;
52102;SDS011;38101;53.126;6.878;2023-04-01T18:00:02;6.38;;;4.75;;
52102;SDS011;38101;53.126;6.878;2023-04-01T18:05:30;7.43;;;5.53;;
52102;SDS011;38101;53.126;6.878;2023-04-01T18:08:02;8.75;;;5.85;;
52102;SDS011;38101;53.126;6.878;2023-04-01T18:10:37;7.40;;;5.03;;
52102;SDS011;38101;53.126;6.878;2023-04-01T18:16:17;15.45;;;9.88;;
52102;SDS011;38101;53.126;6.878;2023-04-01T18:19:09;8.35;;;5.60;;
52102;SDS011;38101;53.126;6.878;2023-04-01T18:24:33;8.30;;;5.43;;
52102;SDS011;38101;53.126;6.878;2023-04-01T18:27:15;6.40;;;4.63;;
52102;SDS011;38101;53.126;6.878;2023-04-01T18:29:58;7.75;;;4.32;;
52102;SDS011;38101;53.126;6.878;2023-04-01T18:32:36;6.80;;;4.72;;
52102;SDS011;38101;53.126;6.878;2023-04-01T18:35:17;5.32;;;4.43;;
52102;SDS011;38101;53.126;6.878;2023-04-01T18:37:57;7.40;;;4.88;;
52102;SDS011;38101;53.126;6.878;2023-04-01T18:40:41;8.10;;;5.18;;
52102;SDS011;38101;53.126;6.878;2023-04-01T18:51:49;9.15;;;5.75;;
52102;SDS011;38101;53.126;6.878;2023-04-01T18:54:45;8.17;;;5.93;;
52102;SDS011;38101;53.126;6.878;2023-04-01T18:57:16;7.18;;;5.10;;
52102;SDS011;38101;53.126;6.878;2023-04-01T19:04:45;10.70;;;6.30;;
52102;SDS011;38101;53.126;6.878;2023-04-01T19:10:12;8.27;;;6.40;;
52102;SDS011;38101;53.126;6.878;2023-04-01T19:15:27;10.43;;;6.63;;
52102;SDS011;38101;53.126;6.878;2023-04-01T19:20:52;10.40;;;6.65;;
52102;SDS011;38101;53.126;6.878;2023-04-01T19:26:14;10.20;;;6.55;;
52102;SDS011;38101;53.126;6.878;2023-04-01T19:34:25;14.98;;;7.50;;
52102;SDS011;38101;53.126;6.878;2023-04-01T19:37:19;12.55;;;7.97;;
52102;SDS011;38101;53.126;6.878;2023-04-01T19:39:54;14.10;;;7.90;;
52102;SDS011;38101;53.126;6.878;2023-04-01T19:42:58;11.65;;;7.95;;
52102;SDS011;38101;53.126;6.878;2023-04-01T19:50:46;12.23;;;6.53;;
52102;SDS011;38101;53.126;6.878;2023-04-01T19:53:36;10.82;;;6.05;;
52102;SDS011;38101;53.126;6.878;2023-04-01T19:59:10;11.32;;;6.00;;
52102;SDS011;38101;53.126;6.878;2023-04-01T20:01:50;9.75;;;5.70;;
52102;SDS011;38101;53.126;6.878;2023-04-01T20:04:26;9.77;;;6.00;;
52102;SDS011;38101;53.126;6.878;2023-04-01T20:07:07;11.05;;;5.47;;
52102;SDS011;38101;53.126;6.878;2023-04-01T20:12:24;8.43;;;5.47;;
52102;SDS011;38101;53.126;6.878;2023-04-01T20:15:21;9.30;;;5.60;;
52102;SDS011;38101;53.126;6.878;2023-04-01T20:18:04;10.43;;;5.88;;
52102;SDS011;38101;53.126;6.878;2023-04-01T20:21:00;9.80;;;5.63;;
52102;SDS011;38101;53.126;6.878;2023-04-01T20:23:34;7.28;;;4.90;;
52102;SDS011;38101;53.126;6.878;2023-04-01T20:26:07;9.57;;;5.50;;
52102;SDS011;38101;53.126;6.878;2023-04-01T20:31:16;8.73;;;4.97;;
52102;SDS011;38101;53.126;6.878;2023-04-01T20:34:11;9.30;;;5.68;;
52102;SDS011;38101;53.126;6.878;2023-04-01T20:39:39;10.13;;;5.80;;
52102;SDS011;38101;53.126;6.878;2023-04-01T20:47:48;6.50;;;4.57;;
52102;SDS011;38101;53.126;6.878;2023-04-01T21:07:46;9.30;;;5.05;;
52102;SDS011;38101;53.126;6.878;2023-04-01T21:10:24;7.28;;;4.82;;
52102;SDS011;38101;53.126;6.878;2023-04-01T21:16:13;8.00;;;4.55;;
52102;SDS011;38101;53.126;6.878;2023-04-01T21:18:45;9.43;;;5.10;;
52102;SDS011;38101;53.126;6.878;2023-04-01T21:21:31;7.20;;;4.88;;
52102;SDS011;38101;53.126;6.878;2023-04-01T21:27:37;9.18;;;5.03;;
52102;SDS011;38101;53.126;6.878;2023-04-01T22:00:38;8.45;;;4.88;;
52102;SDS011;38101;53.126;6.878;2023-04-01T22:11:16;9.73;;;4.75;;
52102;SDS011;38101;53.126;6.878;2023-04-01T22:13:50;7.53;;;4.50;;
52102;SDS011;38101;53.126;6.878;2023-04-01T22:19:39;7.30;;;4.30;;
52102;SDS011;38101;53.126;6.878;2023-04-01T22:22:34;6.55;;;4.28;;
52102;SDS011;38101;53.126;6.878;2023-04-01T22:25:07;7.53;;;4.38;;
52102;SDS011;38101;53.126;6.878;2023-04-01T22:28:07;7.47;;;4.15;;
52102;SDS011;38101;53.126;6.878;2023-04-01T22:30:47;10.82;;;4.38;;
52102;SDS011;38101;53.126;6.878;2023-04-01T22:33:19;8.00;;;4.45;;
52102;SDS011;38101;53.126;6.878;2023-04-01T22:56:07;7.82;;;4.38;;
52102;SDS011;38101;53.126;6.878;2023-04-01T22:58:50;6.78;;;4.07;;
52102;SDS011;38101;53.126;6.878;2023-04-01T23:01:24;6.30;;;3.90;;
52102;SDS011;38101;53.126;6.878;2023-04-01T23:03:55;5.57;;;3.97;;
52102;SDS011;38101;53.126;6.878;2023-04-01T23:06:27;6.53;;;3.80;;
52102;SDS011;38101;53.126;6.878;2023-04-01T23:09:00;7.43;;;4.40;;
52102;SDS011;38101;53.126;6.878;2023-04-01T23:12:04;7.85;;;4.60;;
52102;SDS011;38101;53.126;6.878;2023-04-01T23:17:33;5.95;;;4.13;;
52102;SDS011;38101;53.126;6.878;2023-04-01T23:28:55;7.82;;;4.20;;
52102;SDS011;38101;53.126;6.878;2023-04-01T23:33:56;9.05;;;4.95;;
52102;SDS011;38101;53.126;6.878;2023-04-01T23:36:45;8.65;;;4.20;;
52102;SDS011;38101;53.126;6.878;2023-04-01T23:42:03;5.05;;;3.85;;
52102;SDS011;38101;53.126;6.878;2023-04-01T23:44:44;8.23;;;4.43;;
52102;SDS011;38101;53.126;6.878;2023-04-01T23:47:14;5.95;;;4.05;;
52102;SDS011;38101;53.126;6.878;2023-04-01T23:49:48;6.85;;;3.92;;
52102;SDS011;38101;53.126;6.878;2023-04-01T23:52:24;7.55;;;3.92;;
52102;SDS011;38101;53.126;6.878;2023-04-01T23:54:57;6.38;;;3.88;;
52102;SDS011;38101;53.126;6.878;2023-04-01T23:57:31;7.68;;;4.05;;
